Time;durP1;ratioP1;P1;durP2;ratioP2;P2;SDS_P1;SDS_P2;PMS_P1;PMS_P2;Temp;Humidity;BMP_temperature;BMP_pressure;BME280_temperature;BME280_humidity;BME280_pressure;Samples;Min_cycle;Max_cycle;Signal;HPM_P1;HPM_P2
2021/03/21 00:01:02;;;;;;;11.10;5.63;;;;;;;-1.10;48.77;98206.75;10172274;29;20040;-87
2021/03/21 00:06:23;;;;;;;10.85;5.35;;;;;;;-1.25;48.82;98201.59;10120725;29;20057;-88
2021/03/21 00:11:43;;;;;;;9.90;4.85;;;;;;;-1.30;48.88;98191.38;10121488;29;20071;-88
2021/03/21 00:17:05;;;;;;;9.00;4.80;;;;;;;-1.35;48.49;98181.94;10122045;29;20077;-88
2021/03/21 00:22:25;;;;;;;9.30;5.00;;;;;;;-1.38;49.04;98174.72;10121591;29;20041;-88
2021/03/21 00:27:48;;;;;;;10.02;4.65;;;;;;;-1.33;48.93;98167.75;10133614;29;20049;-88
2021/03/21 00:33:11;;;;;;;8.52;4.70;;;;;;;-1.40;48.81;98166.28;10120797;29;20037;-88
2021/03/21 00:38:38;;;;;;;8.35;4.30;;;;;;;-1.40;48.78;98149.84;10132321;29;20124;-89
2021/03/21 00:43:59;;;;;;;9.57;5.10;;;;;;;-1.39;49.11;98136.88;10119996;29;20049;-88
2021/03/21 00:49:19;;;;;;;10.20;5.05;;;;;;;-1.39;49.06;98125.94;10120117;29;20112;-88
2021/03/21 00:54:40;;;;;;;8.52;4.60;;;;;;;-1.38;48.62;98114.47;10132275;29;20057;-88
2021/03/21 01:00:00;;;;;;;9.10;4.47;;;;;;;-1.31;48.85;98099.50;10131104;29;20112;-88
2021/03/21 01:05:32;;;;;;;9.13;4.45;;;;;;;-1.30;48.42;98087.31;10132011;29;20060;-88
2021/03/21 01:23:32;;;;;;;7.15;4.10;;;;;;;-1.06;48.42;98046.31;11406796;23;20066;-88
2021/03/21 01:28:56;;;;;;;9.05;4.20;;;;;;;-1.02;48.56;98032.34;10171137;29;20048;-88
2021/03/21 01:34:16;;;;;;;7.03;4.28;;;;;;;-1.05;48.56;98027.88;10183573;29;20048;-88
2021/03/21 01:39:37;;;;;;;5.70;3.65;;;;;;;-1.03;47.87;98015.16;10196598;29;20052;-88
2021/03/21 01:44:57;;;;;;;7.63;4.05;;;;;;;-1.04;48.04;97999.97;10196411;29;20056;-89
2021/03/21 01:50:33;;;;;;;9.65;4.32;;;;;;;-1.06;48.67;97994.25;10183177;29;20027;-88
2021/03/21 01:55:54;;;;;;;9.85;4.50;;;;;;;-1.08;48.45;97987.78;10180090;29;20036;-88
2021/03/21 02:01:21;;;;;;;6.75;3.92;;;;;;;-1.04;48.79;97985.53;10167608;29;20044;-88
2021/03/21 02:07:02;;;;;;;8.60;4.22;;;;;;;-1.09;49.05;97976.09;10144374;29;20072;-88
2021/03/21 02:12:58;;;;;;;7.95;3.60;;;;;;;-1.11;49.04;97964.91;10154291;29;20045;-88
2021/03/21 02:18:48;;;;;;;7.93;3.80;;;;;;;-1.03;48.69;97965.84;10165179;29;20081;-88
2021/03/21 02:24:33;;;;;;;6.15;3.70;;;;;;;-1.04;49.13;97949.91;10154609;29;20116;-88
2021/03/21 02:30:18;;;;;;;9.53;4.13;;;;;;;-0.95;49.06;97938.63;10170059;29;20060;-89
2021/03/21 02:35:48;;;;;;;6.95;3.95;;;;;;;-0.96;49.67;97937.88;10144169;29;20024;-88
2021/03/21 02:41:27;;;;;;;7.38;3.65;;;;;;;-0.92;49.77;97926.63;10167895;29;20131;-87
2021/03/21 02:47:09;;;;;;;6.13;3.75;;;;;;;-0.83;49.76;97917.34;10145851;29;20029;-87
2021/03/21 02:52:51;;;;;;;5.90;3.70;;;;;;;-0.72;50.12;97900.75;10157381;29;20044;-88
2021/03/21 02:58:24;;;;;;;8.02;4.03;;;;;;;-0.62;49.32;97888.19;10142158;29;20411;-89
2021/03/21 03:03:47;;;;;;;5.63;3.50;;;;;;;-0.71;50.08;97894.03;10129146;29;20045;-88
2021/03/21 03:09:26;;;;;;;7.30;4.20;;;;;;;-0.68;50.22;97882.00;10139822;29;20064;-88
2021/03/21 03:14:47;;;;;;;5.97;3.55;;;;;;;-0.67;50.05;97875.31;10128198;29;20144;-88
2021/03/21 03:20:34;;;;;;;7.97;3.70;;;;;;;-0.69;49.88;97873.06;10127496;29;20052;-88
2021/03/21 03:26:14;;;;;;;5.43;3.40;;;;;;;-0.68;50.82;97860.09;10173005;29;20381;-88
2021/03/21 03:31:41;;;;;;;5.97;3.20;;;;;;;-0.66;51.00;97852.84;10135130;29;20052;-88
2021/03/21 03:37:03;;;;;;;7.00;3.58;;;;;;;-0.56;50.23;97836.78;10144767;29;20068;-88
2021/03/21 03:43:05;;;;;;;4.97;3.08;;;;;;;-0.48;50.73;97826.72;10143816;29;20048;-88
2021/03/21 03:48:56;;;;;;;5.45;3.25;;;;;;;-0.65;52.33;97824.16;10160063;29;20061;-88
2021/03/21 03:54:36;;;;;;;5.10;3.08;;;;;;;-0.64;51.42;97814.69;10159752;29;20040;-87
2021/03/21 04:00:10;;;;;;;6.40;2.60;;;;;;;-0.59;52.02;97821.34;10145955;29;20052;-88
2021/03/21 04:06:00;;;;;;;4.57;2.60;;;;;;;-0.53;51.59;97802.84;10133589;29;20048;-88
2021/03/21 04:11:43;;;;;;;4.47;2.33;;;;;;;-0.50;51.77;97801.78;10161656;29;20052;-89
2021/03/21 04:23:41;;;;;;;7.10;2.65;;;;;;;-0.45;51.96;97787.28;10070015;29;20042;-88
2021/03/21 04:29:05;;;;;;;6.47;2.42;;;;;;;-0.42;52.85;97788.22;10045368;29;20030;-89
2021/03/21 04:34:25;;;;;;;5.45;2.72;;;;;;;-0.50;53.61;97774.38;10056445;29;20090;-89
2021/03/21 04:39:47;;;;;;;4.90;2.65;;;;;;;-0.54;52.80;97762.97;10055772;29;20054;-89
2021/03/21 04:45:27;;;;;;;5.93;2.53;;;;;;;-0.50;52.57;97741.47;10069538;29;20057;-89
2021/03/21 04:50:47;;;;;;;4.70;2.60;;;;;;;-0.44;52.24;97725.69;10067983;29;20053;-89
2021/03/21 04:56:38;;;;;;;5.32;2.30;;;;;;;-0.43;52.46;97734.63;10069148;29;20041;-88
2021/03/21 05:02:16;;;;;;;5.38;2.30;;;;;;;-0.43;53.48;97732.63;10074909;29;20109;-88
2021/03/21 05:07:57;;;;;;;5.25;2.35;;;;;;;-0.39;52.63;97724.09;10819962;23;20091;-88
2021/03/21 05:13:25;;;;;;;4.57;2.42;;;;;;;-0.36;53.31;97718.31;10183930;29;20040;-88
2021/03/21 05:19:09;;;;;;;4.35;2.40;;;;;;;-0.37;54.71;97711.38;10194690;29;20040;-88
2021/03/21 05:24:36;;;;;;;4.47;2.58;;;;;;;-0.35;55.97;97700.59;10182059;29;20051;-88
2021/03/21 05:30:14;;;;;;;3.67;2.72;;;;;;;-0.27;55.22;97705.50;10178514;29;20060;-88
2021/03/21 05:35:38;;;;;;;4.18;2.22;;;;;;;-0.32;55.95;97702.28;10154615;29;20076;-89
2021/03/21 05:47:33;;;;;;;4.97;2.60;;;;;;;-0.38;57.75;97687.22;10061168;29;20053;-89
2021/03/21 05:53:37;;;;;;;4.18;2.40;;;;;;;-0.45;57.37;97691.28;10230879;23;20072;-88
2021/03/21 05:59:35;;;;;;;4.85;2.20;;;;;;;-0.44;59.41;97683.78;10508820;23;20956;-89
2021/03/21 06:11:32;;;;;;;3.65;2.08;;;;;;;-0.20;58.32;97680.16;10136061;29;20037;-87
2021/03/21 06:17:20;;;;;;;6.22;2.70;;;;;;;-0.16;58.76;97661.41;10077929;29;20153;-88
2021/03/21 06:22:50;;;;;;;5.03;2.58;;;;;;;-0.10;58.05;97665.53;10106337;29;20034;-88
2021/03/21 06:29:12;;;;;;;5.78;2.88;;;;;;;-0.07;58.12;97672.00;10106626;29;20078;-88
2021/03/21 06:35:25;;;;;;;5.15;2.72;;;;;;;-0.07;57.69;97650.03;10119604;29;20041;-87
2021/03/21 06:41:01;;;;;;;5.05;2.65;;;;;;;0.06;57.38;97643.81;10111883;29;20028;-88
2021/03/21 06:46:44;;;;;;;4.47;2.70;;;;;;;0.20;56.73;97637.09;10146707;29;20047;-88
2021/03/21 06:52:25;;;;;;;5.00;2.90;;;;;;;0.40;56.59;97635.72;10121869;29;20144;-87
2021/03/21 06:58:11;;;;;;;4.63;3.22;;;;;;;0.52;56.23;97639.72;10139699;29;20078;-87
2021/03/21 07:03:55;;;;;;;5.82;2.83;;;;;;;0.61;55.97;97628.31;10140206;29;20048;-87
2021/03/21 07:09:43;;;;;;;6.07;2.97;;;;;;;0.57;55.96;97616.88;10114516;29;20097;-88
2021/03/21 07:15:27;;;;;;;5.03;3.17;;;;;;;0.71;55.50;97604.63;10459098;23;20064;-88
2021/03/21 07:20:57;;;;;;;5.05;2.95;;;;;;;0.84;55.71;97607.31;10113558;29;20038;-88
2021/03/21 07:26:34;;;;;;;6.05;3.10;;;;;;;0.95;54.89;97595.34;10113256;29;20034;-88
2021/03/21 07:32:31;;;;;;;5.75;2.80;;;;;;;1.11;54.50;97588.00;10099754;29;20052;-88
2021/03/21 07:38:36;;;;;;;4.78;3.03;;;;;;;1.40;53.92;97577.84;10126755;29;20050;-89
2021/03/21 07:44:24;;;;;;;4.13;2.70;;;;;;;1.64;54.39;97573.97;10114145;29;20053;-88
2021/03/21 07:50:20;;;;;;;5.20;2.45;;;;;;;1.79;54.21;97573.38;10114222;29;20050;-88
2021/03/21 07:56:15;;;;;;;5.82;3.08;;;;;;;2.05;53.18;97564.94;10675018;23;20020;31
2021/03/21 08:01:35;;;;;;;5.75;2.47;;;;;;;2.74;52.73;97556.97;10114389;29;20052;-87
2021/03/21 08:07:00;;;;;;;5.85;3.22;;;;;;;3.21;52.03;97536.50;10123130;29;20078;-82
2021/03/21 08:12:21;;;;;;;4.25;2.90;;;;;;;3.12;50.77;97541.28;11542457;23;20055;-88
2021/03/21 10:05:28;;;;;;;4.80;3.55;;;;;;;7.58;41.96;97447.38;12226115;23;20122;31
2021/03/21 10:11:06;;;;;;;5.28;3.20;;;;;;;7.67;42.48;97455.72;10709462;23;20071;-78
2021/03/21 10:16:26;;;;;;;6.75;3.38;;;;;;;7.43;42.98;97454.66;10151763;29;20059;-80
2021/03/21 10:21:46;;;;;;;4.25;2.83;;;;;;;7.22;43.95;97453.72;10167816;29;20392;-81
2021/03/21 10:27:21;;;;;;;4.68;2.80;;;;;;;7.29;43.73;97442.47;10575094;23;20127;-79
2021/03/21 10:32:48;;;;;;;6.32;4.22;;;;;;;7.49;43.34;97445.31;10164021;29;20500;-79
2021/03/21 10:38:10;;;;;;;4.07;2.85;;;;;;;7.77;43.70;97441.13;10148750;29;20044;-78
2021/03/21 10:43:30;;;;;;;4.50;3.33;;;;;;;8.22;43.14;97429.13;10730086;23;20063;-81
2021/03/21 10:48:52;;;;;;;4.53;3.10;;;;;;;8.88;41.55;97429.59;10152550;29;20393;-80
2021/03/21 10:54:22;;;;;;;4.32;3.85;;;;;;;10.67;41.74;97417.47;10148093;29;20052;-79
2021/03/21 11:00:21;;;;;;;5.82;3.90;;;;;;;10.47;37.73;97423.25;10149815;29;20044;-78
2021/03/21 11:05:46;;;;;;;6.20;3.25;;;;;;;9.65;40.13;97419.34;10127154;29;20063;-81
2021/03/21 11:11:35;;;;;;;4.90;3.58;;;;;;;8.82;40.92;97412.47;10125218;29;20051;-82
2021/03/21 11:17:10;;;;;;;4.80;3.35;;;;;;;9.25;41.29;97411.84;10303029;23;20031;-82
2021/03/21 11:22:38;;;;;;;3.80;3.35;;;;;;;9.58;41.07;97395.97;10361824;23;20025;31
2021/03/21 11:27:58;;;;;;;4.72;2.92;;;;;;;8.68;42.25;97389.22;10419413;23;20066;-82
2021/03/21 11:33:33;;;;;;;3.83;2.92;;;;;;;7.71;44.31;97392.13;10797828;23;20043;-79
2021/03/21 11:38:53;;;;;;;4.55;2.90;;;;;;;7.22;45.43;97385.03;10135188;29;20112;-79
2021/03/21 11:44:22;;;;;;;5.60;3.45;;;;;;;6.90;47.30;97377.78;10153441;29;20071;-77
2021/03/21 11:49:42;;;;;;;3.90;3.15;;;;;;;6.52;46.65;97373.56;10159321;29;20028;-80
2021/03/21 11:55:03;;;;;;;4.72;3.38;;;;;;;6.60;48.47;97368.63;10146606;29;20040;-80
2021/03/21 12:00:28;;;;;;;4.07;3.47;;;;;;;6.46;49.37;97373.06;10149512;29;20041;-80
2021/03/21 12:06:31;;;;;;;4.45;3.00;;;;;;;6.53;49.39;97365.97;10102747;29;20116;-78
2021/03/21 12:11:51;;;;;;;5.50;3.80;;;;;;;6.74;48.65;97348.81;10127801;29;20116;-78
2021/03/21 12:17:23;;;;;;;3.97;3.42;;;;;;;6.62;50.23;97350.69;10102109;29;20055;-79
2021/03/21 12:29:24;;;;;;;6.38;4.30;;;;;;;6.23;50.83;97350.50;11952255;23;20075;-79
2021/03/21 12:34:47;;;;;;;6.82;3.97;;;;;;;6.02;52.26;97346.16;10129040;29;20184;-77
2021/03/21 12:40:18;;;;;;;5.75;4.05;;;;;;;5.78;51.76;97349.00;10097122;29;20616;-79
2021/03/21 12:46:02;;;;;;;5.75;4.57;;;;;;;5.57;51.97;97346.66;10098260;29;20052;-79
2021/03/21 12:51:30;;;;;;;5.55;4.30;;;;;;;5.35;53.20;97354.66;10365644;23;20069;-78
2021/03/21 12:56:50;;;;;;;7.10;4.35;;;;;;;5.24;52.83;97349.59;10075384;29;20401;-78
2021/03/21 13:02:25;;;;;;;6.32;4.20;;;;;;;5.16;53.04;97332.31;10075135;29;20108;-81
2021/03/21 13:07:45;;;;;;;8.85;4.57;;;;;;;5.25;53.49;97339.25;10097817;29;20109;-86
2021/03/21 13:13:06;;;;;;;7.63;4.68;;;;;;;5.23;54.84;97331.53;10134770;29;20033;-87
2021/03/21 13:18:27;;;;;;;5.05;3.47;;;;;;;5.28;54.69;97327.03;10109008;29;20092;-84
2021/03/21 13:23:47;;;;;;;3.58;2.10;;;;;;;5.31;53.72;97337.72;10069011;29;20056;-82
2021/03/21 13:29:08;;;;;;;3.30;2.00;;;;;;;5.36;54.71;97333.97;10084294;29;20048;-78
2021/03/21 13:34:31;;;;;;;3.47;2.00;;;;;;;5.35;54.71;97338.03;10078879;29;20489;-79
2021/03/21 13:52:36;;;;;;;3.40;2.20;;;;;;;5.51;54.63;97326.81;11286988;23;20061;31
2021/03/21 13:57:56;;;;;;;2.33;1.55;;;;;;;5.41;54.80;97324.69;10334435;23;20093;-84
2021/03/21 14:03:18;;;;;;;2.38;1.52;;;;;;;5.38;55.22;97327.84;10118302;29;20101;-81
2021/03/21 14:08:38;;;;;;;4.97;2.20;;;;;;;5.41;55.96;97326.75;10129365;29;20057;-84
2021/03/21 14:13:59;;;;;;;2.85;1.90;;;;;;;5.49;55.98;97327.38;10129070;29;20055;-85
2021/03/21 14:19:19;;;;;;;5.28;3.10;;;;;;;5.73;55.22;97320.28;10116706;29;20096;-85
2021/03/21 14:24:42;;;;;;;3.45;2.53;;;;;;;5.86;55.16;97311.59;10169199;23;20129;-82
2021/03/21 14:30:05;;;;;;;4.85;2.70;;;;;;;6.08;55.55;97309.13;10140312;29;20052;-79
2021/03/21 14:35:27;;;;;;;3.28;1.88;;;;;;;6.16;55.08;97309.75;10155688;29;20040;-79
2021/03/21 14:40:47;;;;;;;4.45;2.45;;;;;;;6.12;55.82;97312.22;10137275;29;20059;-78
2021/03/21 14:46:07;;;;;;;3.60;2.38;;;;;;;6.09;55.62;97314.13;10095634;29;20044;-79
2021/03/21 14:51:27;;;;;;;6.38;2.28;;;;;;;6.06;55.14;97306.19;10101792;29;20052;-80
2021/03/21 14:56:47;;;;;;;7.43;2.47;;;;;;;5.92;54.97;97309.34;10108688;29;20044;-79
2021/03/21 15:02:06;;;;;;;5.18;2.45;;;;;;;5.83;54.82;97307.22;10121944;29;20053;-84
2021/03/21 15:07:29;;;;;;;6.53;2.97;;;;;;;5.77;55.04;97320.56;10135706;23;20086;-82
2021/03/21 15:12:49;;;;;;;9.70;3.08;;;;;;;5.73;55.57;97328.56;10094013;29;20045;-79
2021/03/21 15:18:09;;;;;;;7.57;3.55;;;;;;;5.68;55.95;97326.78;10095293;29;20092;-79
2021/03/21 15:23:31;;;;;;;6.43;3.17;;;;;;;5.62;55.88;97331.84;10092600;29;20112;-79
2021/03/21 15:28:52;;;;;;;10.63;3.45;;;;;;;5.58;55.75;97331.50;10093297;29;20041;-76
2021/03/21 15:34:14;;;;;;;8.25;2.92;;;;;;;5.45;55.89;97347.16;10091304;29;20042;-79
2021/03/21 15:39:33;;;;;;;7.53;3.10;;;;;;;5.35;56.72;97351.16;10062946;29;20076;-79
2021/03/21 15:44:53;;;;;;;5.40;1.63;;;;;;;5.31;56.29;97343.25;10064004;29;20046;-79
2021/03/21 15:50:15;;;;;;;6.68;1.77;;;;;;;5.27;56.26;97356.75;10069332;29;20041;-78
2021/03/21 15:55:36;;;;;;;4.85;1.45;;;;;;;5.26;57.01;97354.56;10079618;29;20041;-78
2021/03/21 16:00:56;;;;;;;4.72;1.55;;;;;;;5.25;56.89;97355.88;10077202;29;20049;-79
2021/03/21 16:06:16;;;;;;;8.40;2.20;;;;;;;5.26;56.60;97354.56;10053631;29;20089;-79
2021/03/21 16:11:36;;;;;;;7.00;1.75;;;;;;;5.25;57.46;97356.59;10014149;29;20046;-79
2021/03/21 16:16:56;;;;;;;5.53;1.77;;;;;;;5.22;57.15;97357.00;10024493;29;20049;-79
2021/03/21 16:22:15;;;;;;;8.88;2.25;;;;;;;5.18;57.59;97358.13;10053220;29;20378;-79
2021/03/21 16:27:35;;;;;;;7.88;2.20;;;;;;;5.14;58.03;97362.59;10088000;29;20129;-80
2021/03/21 16:32:55;;;;;;;10.13;2.33;;;;;;;5.11;57.74;97364.44;10060696;29;20042;-78
2021/03/21 16:38:17;;;;;;;7.45;2.47;;;;;;;5.12;57.73;97359.69;10317521;23;20083;-77
2021/03/21 16:43:36;;;;;;;4.25;1.95;;;;;;;5.09;57.89;97360.78;10143283;29;20048;-75
2021/03/21 16:48:59;;;;;;;7.28;2.00;;;;;;;5.02;58.27;97356.81;10270480;23;20063;-81
2021/03/21 16:54:20;;;;;;;7.57;1.98;;;;;;;4.99;58.34;97357.19;10347946;23;20095;-85
2021/03/21 16:59:40;;;;;;;7.78;2.25;;;;;;;4.97;58.47;97365.34;10215770;24;20052;-80
2021/03/21 17:05:00;;;;;;;7.50;1.90;;;;;;;4.97;58.61;97362.56;10094644;29;20468;-79
2021/03/21 17:10:27;;;;;;;6.22;2.03;;;;;;;4.91;59.15;97373.84;10093119;29;20049;-78
2021/03/21 17:15:47;;;;;;;5.85;2.03;;;;;;;4.93;59.09;97387.13;10089345;29;20053;-79
2021/03/21 17:21:07;;;;;;;9.85;2.60;;;;;;;4.91;58.99;97398.00;10090097;29;20072;-83
2021/03/21 17:26:37;;;;;;;8.82;3.13;;;;;;;4.81;59.57;97395.88;10105647;29;20125;-79
2021/03/21 17:31:58;;;;;;;9.60;2.83;;;;;;;4.76;59.94;97409.94;10091344;29;20096;-79
2021/03/21 17:37:23;;;;;;;11.00;3.00;;;;;;;4.72;61.14;97413.06;10087805;29;20043;-78
2021/03/21 17:42:43;;;;;;;9.85;3.47;;;;;;;4.75;60.21;97425.06;10439482;23;20059;-79
2021/03/21 17:48:04;;;;;;;8.07;2.80;;;;;;;4.69;61.67;97425.28;10454559;23;20519;-82
2021/03/21 17:53:38;;;;;;;10.00;2.22;;;;;;;4.52;61.23;97425.91;10148559;29;20040;-81
2021/03/21 17:59:03;;;;;;;8.85;2.63;;;;;;;4.39;61.08;97426.19;10166240;29;20044;-87
2021/03/21 18:04:23;;;;;;;9.00;2.83;;;;;;;4.29;62.68;97428.06;10184350;24;20057;-87
2021/03/21 18:09:43;;;;;;;8.10;2.70;;;;;;;4.24;62.03;97426.97;10117551;29;20060;-87
2021/03/21 18:15:04;;;;;;;8.90;2.90;;;;;;;4.19;62.85;97427.94;10148376;29;20079;-87
2021/03/21 18:20:25;;;;;;;12.30;2.55;;;;;;;4.15;63.27;97422.06;10168447;29;20036;-84
2021/03/21 18:25:52;;;;;;;9.02;3.28;;;;;;;4.11;63.22;97418.22;10340000;23;20726;31
2021/03/21 18:31:24;;;;;;;10.80;3.38;;;;;;;4.09;62.98;97427.06;10054164;29;20037;-87
2021/03/21 18:36:44;;;;;;;9.35;3.13;;;;;;;4.07;63.81;97439.97;10056010;29;20105;-87
2021/03/21 18:42:05;;;;;;;15.30;4.13;;;;;;;4.04;64.24;97441.81;10126135;23;20056;-88
2021/03/21 18:47:26;;;;;;;11.25;3.58;;;;;;;4.06;65.26;97444.75;10096815;29;20048;-80
2021/03/21 18:52:46;;;;;;;11.10;3.50;;;;;;;4.05;65.07;97445.28;10067854;29;20049;-75
2021/03/21 18:58:07;;;;;;;11.15;3.33;;;;;;;4.06;65.33;97452.31;10079671;29;20457;-78
2021/03/21 19:03:27;;;;;;;9.55;3.38;;;;;;;4.05;64.66;97450.81;10095952;29;20049;-76
2021/03/21 19:08:46;;;;;;;12.40;3.53;;;;;;;3.97;64.33;97456.38;10133516;29;20045;-77
2021/03/21 19:14:07;;;;;;;12.70;3.72;;;;;;;3.75;66.00;97460.66;10144954;29;20457;-83
2021/03/21 19:19:27;;;;;;;11.23;4.05;;;;;;;3.50;65.16;97452.25;10093421;29;20096;-78
2021/03/21 19:24:47;;;;;;;12.73;4.03;;;;;;;3.44;65.90;97454.47;10159862;29;20028;-88
2021/03/21 19:30:10;;;;;;;12.57;4.65;;;;;;;3.37;66.77;97464.22;10149720;29;20045;-83
2021/03/21 19:35:37;;;;;;;14.25;4.63;;;;;;;3.29;66.19;97462.75;10149208;29;20049;-80
2021/03/21 19:41:00;;;;;;;12.90;4.30;;;;;;;3.24;66.97;97480.22;10117873;29;20080;-85
2021/03/21 19:46:21;;;;;;;13.80;4.22;;;;;;;3.32;66.74;97478.94;10155914;29;20048;-85
2021/03/21 19:51:41;;;;;;;13.52;4.70;;;;;;;3.52;66.85;97482.06;10172291;29;20108;-84
2021/03/21 19:57:03;;;;;;;12.23;3.75;;;;;;;3.60;66.76;97482.78;10162221;29;20052;-86
2021/03/21 20:02:25;;;;;;;12.57;3.72;;;;;;;3.62;66.40;97475.41;10177630;29;20048;-88
2021/03/21 20:07:45;;;;;;;11.48;3.47;;;;;;;3.66;66.66;97480.56;10142031;29;20081;-82
2021/03/21 20:13:05;;;;;;;11.02;3.20;;;;;;;3.76;66.55;97483.47;10137704;29;20044;-81
2021/03/21 20:18:25;;;;;;;10.23;3.00;;;;;;;3.83;66.77;97482.75;10132283;29;20047;-82
2021/03/21 20:23:45;;;;;;;12.52;3.50;;;;;;;3.93;66.69;97489.88;10133236;29;20044;-82
2021/03/21 20:29:05;;;;;;;12.52;3.30;;;;;;;3.98;66.38;97499.28;10245609;23;20048;-88
2021/03/21 20:34:29;;;;;;;10.40;3.10;;;;;;;4.04;66.31;97491.50;10263020;23;20061;-83
2021/03/21 20:39:50;;;;;;;10.32;3.05;;;;;;;4.08;66.19;97505.69;10164994;29;20401;-84
2021/03/21 20:45:11;;;;;;;13.02;4.05;;;;;;;4.20;67.32;97537.16;10160986;29;20064;-85
2021/03/21 20:50:31;;;;;;;8.85;2.15;;;;;;;4.03;66.92;97548.06;10313583;24;20062;-85
2021/03/21 20:55:55;;;;;;;6.20;1.90;;;;;;;3.79;67.62;97565.22;10139764;24;20067;-80
2021/03/21 21:01:15;;;;;;;2.40;0.90;;;;;;;3.54;67.24;97576.81;10130344;29;20048;-80
2021/03/21 21:06:34;;;;;;;4.00;0.93;;;;;;;3.32;67.81;97581.03;10125878;29;20073;-79
2021/03/21 21:11:54;;;;;;;2.85;1.38;;;;;;;3.03;69.30;97583.16;10125382;29;20048;-80
2021/03/21 21:17:14;;;;;;;2.45;0.65;;;;;;;2.93;68.84;97587.75;10112003;29;20473;-80
2021/03/21 21:22:34;;;;;;;2.20;0.88;;;;;;;2.83;69.04;97586.78;10121751;29;20400;-78
2021/03/21 21:27:54;;;;;;;1.98;0.80;;;;;;;2.79;68.65;97594.66;10124055;29;20384;-80
2021/03/21 21:33:14;;;;;;;3.28;0.88;;;;;;;2.74;68.97;97592.81;10126479;29;20055;-79
2021/03/21 21:38:34;;;;;;;2.78;0.77;;;;;;;2.73;69.04;97574.81;10139259;29;20047;-80
2021/03/21 21:43:54;;;;;;;5.65;1.30;;;;;;;2.74;69.65;97574.25;10099568;29;20067;-77
2021/03/21 21:49:14;;;;;;;4.18;1.23;;;;;;;2.73;69.64;97563.78;10113704;29;20040;-80
2021/03/21 21:54:35;;;;;;;4.53;0.90;;;;;;;2.76;70.12;97565.44;10126195;29;20049;-78
2021/03/21 21:59:55;;;;;;;2.13;0.90;;;;;;;2.79;69.50;97576.09;10112676;29;20056;-79
2021/03/21 22:05:14;;;;;;;3.47;1.60;;;;;;;2.81;70.06;97583.84;10098580;29;20048;-76
2021/03/21 22:10:38;;;;;;;4.53;1.55;;;;;;;2.92;69.97;97594.53;10125137;29;20052;-77
2021/03/21 22:15:59;;;;;;;5.70;1.80;;;;;;;3.05;69.67;97607.44;10113248;29;20051;-77
2021/03/21 22:21:19;;;;;;;4.78;1.48;;;;;;;3.10;70.73;97612.06;10113576;29;20044;-79
2021/03/21 22:26:39;;;;;;;5.75;1.67;;;;;;;3.12;70.48;97615.75;10111865;29;20056;-78
2021/03/21 22:32:00;;;;;;;5.78;1.80;;;;;;;3.08;70.26;97623.63;10112916;29;20044;-80
2021/03/21 22:37:20;;;;;;;6.00;1.17;;;;;;;3.03;70.38;97641.06;10123422;29;20049;-78
2021/03/21 22:42:40;;;;;;;5.05;0.95;;;;;;;2.86;70.79;97643.59;10109151;29;20049;-77
2021/03/21 22:48:00;;;;;;;1.58;0.52;;;;;;;2.77;71.07;97639.31;10096247;29;20045;-78
2021/03/21 22:53:19;;;;;;;2.38;0.50;;;;;;;2.71;70.66;97633.25;10108735;29;20052;-76
2021/03/21 22:58:39;;;;;;;1.58;0.60;;;;;;;2.66;70.69;97620.34;10120809;29;20057;-77
2021/03/21 23:03:59;;;;;;;1.77;0.43;;;;;;;2.67;70.73;97618.31;10121215;29;20056;-77
2021/03/21 23:09:19;;;;;;;3.55;0.60;;;;;;;2.62;70.79;97603.44;10108704;29;20041;-76
2021/03/21 23:14:38;;;;;;;2.53;0.50;;;;;;;2.63;70.68;97610.41;10082702;29;20041;-75
2021/03/21 23:19:58;;;;;;;1.83;0.75;;;;;;;2.58;70.79;97612.03;10134792;29;20559;-76
2021/03/21 23:25:19;;;;;;;3.20;0.90;;;;;;;2.57;70.99;97610.56;10095467;29;20065;-75
2021/03/21 23:30:40;;;;;;;2.38;0.68;;;;;;;2.56;70.87;97625.63;10108451;29;20052;-75
2021/03/21 23:36:01;;;;;;;3.78;1.13;;;;;;;2.61;71.09;97620.50;10095789;29;20157;-76
2021/03/21 23:41:20;;;;;;;4.88;1.27;;;;;;;2.64;71.20;97627.69;10115394;29;20400;-77
2021/03/21 23:46:40;;;;;;;2.70;1.10;;;;;;;2.60;71.16;97622.50;10128405;29;20059;-77
2021/03/21 23:52:02;;;;;;;4.60;1.60;;;;;;;2.59;70.84;97623.78;10102450;29;20440;-76
2021/03/21 23:57:22;;;;;;;3.55;1.20;;;;;;;2.62;71.09;97621.97;10128308;29;20412;-76
